sensor_id;sensor_type;location;lat;lon;timestamp;P1;durP1;ratioP1;P2;durP2;ratioP2
13588;SDS011;6865;52.552;13.434;2023-02-28T00:01:03;5.73;;;3.70;;
13588;SDS011;6865;52.552;13.434;2023-02-28T00:03:30;5.97;;;3.50;;
13588;SDS011;6865;52.552;13.434;2023-02-28T00:05:56;7.43;;;3.53;;
13588;SDS011;6865;52.552;13.434;2023-02-28T00:08:23;5.77;;;3.30;;
13588;SDS011;6865;52.552;13.434;2023-02-28T00:10:50;5.53;;;3.50;;
13588;SDS011;6865;52.552;13.434;2023-02-28T00:13:16;6.97;;;3.47;;
13588;SDS011;6865;52.552;13.434;2023-02-28T00:15:43;5.33;;;3.50;;
13588;SDS011;6865;52.552;13.434;2023-02-28T00:18:11;5.87;;;3.63;;
13588;SDS011;6865;52.552;13.434;2023-02-28T00:20:38;7.33;;;3.07;;
13588;SDS011;6865;52.552;13.434;2023-02-28T00:23:04;6.83;;;3.37;;
13588;SDS011;6865;52.552;13.434;2023-02-28T00:25:31;7.20;;;3.30;;
13588;SDS011;6865;52.552;13.434;2023-02-28T00:27:57;6.53;;;3.73;;
13588;SDS011;6865;52.552;13.434;2023-02-28T00:30:24;5.27;;;2.70;;
13588;SDS011;6865;52.552;13.434;2023-02-28T00:32:51;5.23;;;2.70;;
13588;SDS011;6865;52.552;13.434;2023-02-28T00:35:17;3.87;;;2.30;;
13588;SDS011;6865;52.552;13.434;2023-02-28T00:37:44;3.87;;;2.50;;
13588;SDS011;6865;52.552;13.434;2023-02-28T00:40:11;4.07;;;2.53;;
13588;SDS011;6865;52.552;13.434;2023-02-28T00:42:38;3.73;;;2.57;;
13588;SDS011;6865;52.552;13.434;2023-02-28T00:45:05;5.20;;;2.50;;
13588;SDS011;6865;52.552;13.434;2023-02-28T00:47:34;5.50;;;2.67;;
13588;SDS011;6865;52.552;13.434;2023-02-28T00:50:01;3.03;;;2.40;;
13588;SDS011;6865;52.552;13.434;2023-02-28T00:52:28;3.20;;;2.33;;
13588;SDS011;6865;52.552;13.434;2023-02-28T00:54:55;4.20;;;2.47;;
13588;SDS011;6865;52.552;13.434;2023-02-28T00:57:22;4.93;;;2.63;;
13588;SDS011;6865;52.552;13.434;2023-02-28T00:59:49;3.97;;;2.23;;
13588;SDS011;6865;52.552;13.434;2023-02-28T01:02:15;3.93;;;2.77;;
13588;SDS011;6865;52.552;13.434;2023-02-28T01:04:42;3.97;;;2.33;;
13588;SDS011;6865;52.552;13.434;2023-02-28T01:07:09;4.43;;;3.00;;
13588;SDS011;6865;52.552;13.434;2023-02-28T01:09:35;4.63;;;2.60;;
13588;SDS011;6865;52.552;13.434;2023-02-28T01:12:02;3.87;;;2.33;;
13588;SDS011;6865;52.552;13.434;2023-02-28T01:14:29;5.37;;;2.80;;
13588;SDS011;6865;52.552;13.434;2023-02-28T01:16:56;4.57;;;2.83;;
13588;SDS011;6865;52.552;13.434;2023-02-28T01:19:25;4.50;;;2.87;;
13588;SDS011;6865;52.552;13.434;2023-02-28T01:21:51;4.07;;;2.50;;
13588;SDS011;6865;52.552;13.434;2023-02-28T01:24:18;4.70;;;2.90;;
13588;SDS011;6865;52.552;13.434;2023-02-28T01:26:45;5.63;;;3.17;;
13588;SDS011;6865;52.552;13.434;2023-02-28T01:29:12;5.17;;;3.00;;
13588;SDS011;6865;52.552;13.434;2023-02-28T01:31:38;6.57;;;3.30;;
13588;SDS011;6865;52.552;13.434;2023-02-28T01:34:05;3.33;;;2.50;;
13588;SDS011;6865;52.552;13.434;2023-02-28T01:36:32;5.27;;;3.10;;
13588;SDS011;6865;52.552;13.434;2023-02-28T01:38:58;5.67;;;3.00;;
13588;SDS011;6865;52.552;13.434;2023-02-28T01:41:26;3.93;;;2.57;;
13588;SDS011;6865;52.552;13.434;2023-02-28T01:43:57;3.77;;;2.50;;
13588;SDS011;6865;52.552;13.434;2023-02-28T01:46:30;5.23;;;2.80;;
13588;SDS011;6865;52.552;13.434;2023-02-28T01:49:08;5.87;;;2.80;;
13588;SDS011;6865;52.552;13.434;2023-02-28T01:51:43;5.17;;;2.83;;
13588;SDS011;6865;52.552;13.434;2023-02-28T01:54:18;5.27;;;2.73;;
13588;SDS011;6865;52.552;13.434;2023-02-28T01:56:52;3.83;;;2.83;;
13588;SDS011;6865;52.552;13.434;2023-02-28T01:59:24;3.40;;;2.50;;
13588;SDS011;6865;52.552;13.434;2023-02-28T02:01:56;4.87;;;3.00;;
13588;SDS011;6865;52.552;13.434;2023-02-28T02:04:23;6.67;;;3.17;;
13588;SDS011;6865;52.552;13.434;2023-02-28T02:06:53;4.07;;;2.90;;
13588;SDS011;6865;52.552;13.434;2023-02-28T02:09:20;5.90;;;2.93;;
13588;SDS011;6865;52.552;13.434;2023-02-28T02:11:47;4.60;;;3.00;;
13588;SDS011;6865;52.552;13.434;2023-02-28T02:14:18;5.47;;;2.80;;
13588;SDS011;6865;52.552;13.434;2023-02-28T02:17:05;4.73;;;2.83;;
13588;SDS011;6865;52.552;13.434;2023-02-28T02:23:00;6.17;;;3.40;;
13588;SDS011;6865;52.552;13.434;2023-02-28T02:25:53;5.20;;;3.30;;
13588;SDS011;6865;52.552;13.434;2023-02-28T02:31:16;4.80;;;2.87;;
13588;SDS011;6865;52.552;13.434;2023-02-28T02:34:03;6.63;;;3.40;;
13588;SDS011;6865;52.552;13.434;2023-02-28T02:39:31;5.07;;;3.47;;
13588;SDS011;6865;52.552;13.434;2023-02-28T02:42:14;5.87;;;3.23;;
13588;SDS011;6865;52.552;13.434;2023-02-28T02:45:05;5.57;;;2.93;;
13588;SDS011;6865;52.552;13.434;2023-02-28T02:47:35;6.17;;;3.10;;
13588;SDS011;6865;52.552;13.434;2023-02-28T02:50:05;6.83;;;3.33;;
13588;SDS011;6865;52.552;13.434;2023-02-28T02:52:38;5.53;;;3.20;;
13588;SDS011;6865;52.552;13.434;2023-02-28T02:55:12;5.07;;;3.20;;
13588;SDS011;6865;52.552;13.434;2023-02-28T02:57:50;6.67;;;3.40;;
13588;SDS011;6865;52.552;13.434;2023-02-28T03:00:22;4.47;;;2.93;;
13588;SDS011;6865;52.552;13.434;2023-02-28T03:02:52;8.30;;;3.80;;
13588;SDS011;6865;52.552;13.434;2023-02-28T03:05:26;5.80;;;3.43;;
13588;SDS011;6865;52.552;13.434;2023-02-28T03:07:58;8.43;;;3.43;;
13588;SDS011;6865;52.552;13.434;2023-02-28T03:10:44;5.83;;;3.50;;
13588;SDS011;6865;52.552;13.434;2023-02-28T03:13:32;7.70;;;3.70;;
13588;SDS011;6865;52.552;13.434;2023-02-28T03:16:19;6.87;;;3.80;;
13588;SDS011;6865;52.552;13.434;2023-02-28T03:19:03;5.63;;;3.30;;
13588;SDS011;6865;52.552;13.434;2023-02-28T03:22:00;6.77;;;3.70;;
13588;SDS011;6865;52.552;13.434;2023-02-28T03:24:33;5.90;;;3.90;;
13588;SDS011;6865;52.552;13.434;2023-02-28T03:27:10;6.60;;;3.87;;
13588;SDS011;6865;52.552;13.434;2023-02-28T03:29:52;6.83;;;4.13;;
13588;SDS011;6865;52.552;13.434;2023-02-28T03:33:01;8.10;;;3.90;;
13588;SDS011;6865;52.552;13.434;2023-02-28T03:35:37;5.93;;;3.90;;
13588;SDS011;6865;52.552;13.434;2023-02-28T03:38:13;5.13;;;3.70;;
13588;SDS011;6865;52.552;13.434;2023-02-28T03:40:49;6.77;;;3.60;;
13588;SDS011;6865;52.552;13.434;2023-02-28T03:43:21;6.83;;;3.80;;
13588;SDS011;6865;52.552;13.434;2023-02-28T03:45:53;6.93;;;4.17;;
13588;SDS011;6865;52.552;13.434;2023-02-28T03:48:26;6.50;;;3.40;;
13588;SDS011;6865;52.552;13.434;2023-02-28T03:50:58;5.40;;;3.60;;
13588;SDS011;6865;52.552;13.434;2023-02-28T03:53:29;5.00;;;3.40;;
13588;SDS011;6865;52.552;13.434;2023-02-28T03:59:02;5.27;;;3.33;;
13588;SDS011;6865;52.552;13.434;2023-02-28T04:01:47;5.67;;;3.43;;
13588;SDS011;6865;52.552;13.434;2023-02-28T04:04:15;6.27;;;3.43;;
13588;SDS011;6865;52.552;13.434;2023-02-28T04:06:42;6.70;;;3.40;;
13588;SDS011;6865;52.552;13.434;2023-02-28T04:09:11;8.87;;;4.37;;
13588;SDS011;6865;52.552;13.434;2023-02-28T04:11:40;6.43;;;4.20;;
13588;SDS011;6865;52.552;13.434;2023-02-28T04:14:21;6.00;;;4.27;;
13588;SDS011;6865;52.552;13.434;2023-02-28T04:16:49;6.20;;;3.97;;
13588;SDS011;6865;52.552;13.434;2023-02-28T04:19:17;6.60;;;3.80;;
13588;SDS011;6865;52.552;13.434;2023-02-28T04:21:46;6.50;;;3.93;;
13588;SDS011;6865;52.552;13.434;2023-02-28T04:24:15;7.33;;;4.10;;
13588;SDS011;6865;52.552;13.434;2023-02-28T04:26:44;7.40;;;4.00;;
13588;SDS011;6865;52.552;13.434;2023-02-28T04:29:14;7.77;;;4.30;;
13588;SDS011;6865;52.552;13.434;2023-02-28T04:31:48;6.20;;;4.00;;
13588;SDS011;6865;52.552;13.434;2023-02-28T04:34:16;7.07;;;4.10;;
13588;SDS011;6865;52.552;13.434;2023-02-28T04:36:42;5.97;;;3.57;;
13588;SDS011;6865;52.552;13.434;2023-02-28T04:39:09;6.03;;;4.00;;
13588;SDS011;6865;52.552;13.434;2023-02-28T04:41:36;7.23;;;3.97;;
13588;SDS011;6865;52.552;13.434;2023-02-28T04:44:02;6.00;;;4.00;;
13588;SDS011;6865;52.552;13.434;2023-02-28T04:46:29;6.83;;;4.37;;
13588;SDS011;6865;52.552;13.434;2023-02-28T04:48:56;7.27;;;3.77;;
13588;SDS011;6865;52.552;13.434;2023-02-28T04:51:24;8.87;;;4.30;;
13588;SDS011;6865;52.552;13.434;2023-02-28T04:53:51;8.23;;;3.90;;
13588;SDS011;6865;52.552;13.434;2023-02-28T04:56:18;9.47;;;4.70;;
13588;SDS011;6865;52.552;13.434;2023-02-28T04:58:45;10.27;;;4.60;;
13588;SDS011;6865;52.552;13.434;2023-02-28T05:03:50;8.50;;;4.80;;
13588;SDS011;6865;52.552;13.434;2023-02-28T05:06:18;8.40;;;4.93;;
13588;SDS011;6865;52.552;13.434;2023-02-28T05:08:46;8.43;;;4.90;;
13588;SDS011;6865;52.552;13.434;2023-02-28T05:11:15;7.83;;;5.07;;
13588;SDS011;6865;52.552;13.434;2023-02-28T05:13:44;9.20;;;5.10;;
13588;SDS011;6865;52.552;13.434;2023-02-28T05:16:11;7.83;;;4.93;;
13588;SDS011;6865;52.552;13.434;2023-02-28T05:18:38;9.87;;;5.33;;
13588;SDS011;6865;52.552;13.434;2023-02-28T05:21:05;9.97;;;5.00;;
13588;SDS011;6865;52.552;13.434;2023-02-28T05:23:49;8.67;;;5.27;;
13588;SDS011;6865;52.552;13.434;2023-02-28T05:26:16;10.93;;;5.43;;
13588;SDS011;6865;52.552;13.434;2023-02-28T05:28:43;10.70;;;5.47;;
13588;SDS011;6865;52.552;13.434;2023-02-28T05:31:13;13.67;;;5.57;;
13588;SDS011;6865;52.552;13.434;2023-02-28T05:33:39;10.10;;;5.20;;
13588;SDS011;6865;52.552;13.434;2023-02-28T05:36:06;7.80;;;5.37;;
13588;SDS011;6865;52.552;13.434;2023-02-28T05:38:33;10.10;;;5.47;;
13588;SDS011;6865;52.552;13.434;2023-02-28T05:41:07;14.33;;;7.40;;
13588;SDS011;6865;52.552;13.434;2023-02-28T05:43:34;19.60;;;10.67;;
13588;SDS011;6865;52.552;13.434;2023-02-28T05:46:06;18.13;;;11.20;;
13588;SDS011;6865;52.552;13.434;2023-02-28T05:48:34;15.67;;;8.43;;
13588;SDS011;6865;52.552;13.434;2023-02-28T05:51:03;9.93;;;6.47;;
13588;SDS011;6865;52.552;13.434;2023-02-28T05:53:33;12.67;;;6.43;;
13588;SDS011;6865;52.552;13.434;2023-02-28T05:56:00;12.00;;;6.77;;
13588;SDS011;6865;52.552;13.434;2023-02-28T05:58:27;11.73;;;5.90;;
13588;SDS011;6865;52.552;13.434;2023-02-28T06:00:57;9.57;;;5.17;;
13588;SDS011;6865;52.552;13.434;2023-02-28T06:03:25;8.17;;;5.20;;
13588;SDS011;6865;52.552;13.434;2023-02-28T06:05:52;8.53;;;4.97;;
13588;SDS011;6865;52.552;13.434;2023-02-28T06:08:19;8.17;;;5.27;;
13588;SDS011;6865;52.552;13.434;2023-02-28T06:10:45;8.23;;;5.00;;
13588;SDS011;6865;52.552;13.434;2023-02-28T06:13:12;7.20;;;4.77;;
13588;SDS011;6865;52.552;13.434;2023-02-28T06:15:39;7.33;;;4.60;;
13588;SDS011;6865;52.552;13.434;2023-02-28T06:18:05;9.20;;;5.10;;
13588;SDS011;6865;52.552;13.434;2023-02-28T06:20:32;9.50;;;5.30;;
13588;SDS011;6865;52.552;13.434;2023-02-28T06:22:59;7.00;;;4.97;;
13588;SDS011;6865;52.552;13.434;2023-02-28T06:25:26;9.50;;;4.97;;
13588;SDS011;6865;52.552;13.434;2023-02-28T06:27:54;9.23;;;5.40;;
13588;SDS011;6865;52.552;13.434;2023-02-28T06:30:23;8.90;;;5.53;;
13588;SDS011;6865;52.552;13.434;2023-02-28T06:32:53;12.53;;;5.90;;
13588;SDS011;6865;52.552;13.434;2023-02-28T06:35:20;8.83;;;5.50;;
13588;SDS011;6865;52.552;13.434;2023-02-28T06:37:48;12.10;;;6.30;;
13588;SDS011;6865;52.552;13.434;2023-02-28T06:40:15;8.70;;;5.67;;
13588;SDS011;6865;52.552;13.434;2023-02-28T06:42:42;11.17;;;5.70;;
13588;SDS011;6865;52.552;13.434;2023-02-28T06:45:09;10.70;;;6.10;;
13588;SDS011;6865;52.552;13.434;2023-02-28T06:47:37;11.60;;;5.87;;
13588;SDS011;6865;52.552;13.434;2023-02-28T06:50:06;9.07;;;6.00;;
13588;SDS011;6865;52.552;13.434;2023-02-28T06:52:34;9.93;;;5.93;;
13588;SDS011;6865;52.552;13.434;2023-02-28T06:55:06;9.13;;;5.37;;
13588;SDS011;6865;52.552;13.434;2023-02-28T06:57:34;12.40;;;6.37;;
13588;SDS011;6865;52.552;13.434;2023-02-28T07:00:03;12.07;;;5.93;;
13588;SDS011;6865;52.552;13.434;2023-02-28T07:02:34;10.40;;;6.17;;
13588;SDS011;6865;52.552;13.434;2023-02-28T07:05:01;13.53;;;5.80;;
13588;SDS011;6865;52.552;13.434;2023-02-28T07:07:43;10.83;;;6.13;;
13588;SDS011;6865;52.552;13.434;2023-02-28T07:10:12;10.30;;;5.93;;
13588;SDS011;6865;52.552;13.434;2023-02-28T07:12:45;13.30;;;6.10;;
13588;SDS011;6865;52.552;13.434;2023-02-28T07:15:12;10.63;;;6.07;;
13588;SDS011;6865;52.552;13.434;2023-02-28T07:17:38;12.93;;;6.70;;
13588;SDS011;6865;52.552;13.434;2023-02-28T07:20:05;15.17;;;6.30;;
13588;SDS011;6865;52.552;13.434;2023-02-28T07:22:32;15.17;;;7.43;;
13588;SDS011;6865;52.552;13.434;2023-02-28T07:24:59;11.03;;;6.80;;
13588;SDS011;6865;52.552;13.434;2023-02-28T07:27:26;15.83;;;7.13;;
13588;SDS011;6865;52.552;13.434;2023-02-28T07:29:53;18.67;;;8.07;;
13588;SDS011;6865;52.552;13.434;2023-02-28T07:32:20;22.10;;;8.47;;
13588;SDS011;6865;52.552;13.434;2023-02-28T07:34:47;18.23;;;9.17;;
13588;SDS011;6865;52.552;13.434;2023-02-28T07:37:14;17.83;;;7.87;;
13588;SDS011;6865;52.552;13.434;2023-02-28T07:39:41;19.13;;;9.10;;
13588;SDS011;6865;52.552;13.434;2023-02-28T07:42:08;16.90;;;9.03;;
13588;SDS011;6865;52.552;13.434;2023-02-28T07:44:38;16.40;;;8.23;;
13588;SDS011;6865;52.552;13.434;2023-02-28T07:47:07;16.30;;;8.20;;
13588;SDS011;6865;52.552;13.434;2023-02-28T07:49:37;13.67;;;7.50;;
13588;SDS011;6865;52.552;13.434;2023-02-28T07:52:04;17.57;;;8.77;;
13588;SDS011;6865;52.552;13.434;2023-02-28T07:54:32;19.83;;;8.77;;
13588;SDS011;6865;52.552;13.434;2023-02-28T07:56:59;20.10;;;9.23;;
13588;SDS011;6865;52.552;13.434;2023-02-28T07:59:26;16.70;;;7.90;;
13588;SDS011;6865;52.552;13.434;2023-02-28T08:01:56;17.67;;;8.43;;
13588;SDS011;6865;52.552;13.434;2023-02-28T08:04:23;14.97;;;8.60;;
13588;SDS011;6865;52.552;13.434;2023-02-28T08:06:50;15.27;;;7.67;;
13588;SDS011;6865;52.552;13.434;2023-02-28T08:09:19;18.80;;;7.93;;
13588;SDS011;6865;52.552;13.434;2023-02-28T08:11:46;11.60;;;6.50;;
13588;SDS011;6865;52.552;13.434;2023-02-28T08:14:12;13.30;;;6.43;;
13588;SDS011;6865;52.552;13.434;2023-02-28T08:16:39;10.97;;;7.00;;
13588;SDS011;6865;52.552;13.434;2023-02-28T08:19:06;13.70;;;6.73;;
13588;SDS011;6865;52.552;13.434;2023-02-28T08:21:33;13.23;;;6.33;;
13588;SDS011;6865;52.552;13.434;2023-02-28T08:23:59;10.10;;;6.60;;
13588;SDS011;6865;52.552;13.434;2023-02-28T08:26:26;9.40;;;5.73;;
13588;SDS011;6865;52.552;13.434;2023-02-28T08:28:53;7.37;;;2.93;;
13588;SDS011;6865;52.552;13.434;2023-02-28T08:31:22;4.87;;;3.07;;
13588;SDS011;6865;52.552;13.434;2023-02-28T08:33:49;5.97;;;3.43;;
13588;SDS011;6865;52.552;13.434;2023-02-28T08:36:18;5.40;;;3.10;;
13588;SDS011;6865;52.552;13.434;2023-02-28T08:38:45;4.00;;;3.20;;
13588;SDS011;6865;52.552;13.434;2023-02-28T08:41:12;5.13;;;3.17;;
13588;SDS011;6865;52.552;13.434;2023-02-28T08:43:39;5.67;;;2.60;;
13588;SDS011;6865;52.552;13.434;2023-02-28T08:46:06;4.50;;;2.30;;
13588;SDS011;6865;52.552;13.434;2023-02-28T08:48:34;4.80;;;2.20;;
13588;SDS011;6865;52.552;13.434;2023-02-28T08:51:05;4.27;;;2.50;;
13588;SDS011;6865;52.552;13.434;2023-02-28T08:53:35;5.53;;;2.30;;
13588;SDS011;6865;52.552;13.434;2023-02-28T08:56:07;5.30;;;2.23;;
13588;SDS011;6865;52.552;13.434;2023-02-28T08:58:39;4.97;;;2.10;;
13588;SDS011;6865;52.552;13.434;2023-02-28T09:01:10;3.40;;;1.77;;
13588;SDS011;6865;52.552;13.434;2023-02-28T09:03:39;4.80;;;2.33;;
13588;SDS011;6865;52.552;13.434;2023-02-28T09:06:08;4.87;;;2.10;;
13588;SDS011;6865;52.552;13.434;2023-02-28T09:08:36;4.63;;;1.97;;
13588;SDS011;6865;52.552;13.434;2023-02-28T09:11:03;3.00;;;1.90;;
13588;SDS011;6865;52.552;13.434;2023-02-28T09:13:30;5.90;;;2.33;;
13588;SDS011;6865;52.552;13.434;2023-02-28T09:15:59;2.90;;;1.90;;
13588;SDS011;6865;52.552;13.434;2023-02-28T09:18:28;4.47;;;2.17;;
13588;SDS011;6865;52.552;13.434;2023-02-28T09:20:55;4.70;;;2.20;;
13588;SDS011;6865;52.552;13.434;2023-02-28T09:23:21;3.73;;;2.00;;
13588;SDS011;6865;52.552;13.434;2023-02-28T09:25:49;2.93;;;1.97;;
13588;SDS011;6865;52.552;13.434;2023-02-28T09:28:19;2.10;;;1.30;;
13588;SDS011;6865;52.552;13.434;2023-02-28T09:30:47;5.03;;;1.63;;
13588;SDS011;6865;52.552;13.434;2023-02-28T09:33:15;4.03;;;1.77;;
13588;SDS011;6865;52.552;13.434;2023-02-28T09:35:43;3.40;;;1.70;;
13588;SDS011;6865;52.552;13.434;2023-02-28T09:38:10;3.20;;;1.33;;
13588;SDS011;6865;52.552;13.434;2023-02-28T09:41:00;6.80;;;2.10;;
13588;SDS011;6865;52.552;13.434;2023-02-28T09:43:26;4.27;;;2.00;;
13588;SDS011;6865;52.552;13.434;2023-02-28T09:46:06;4.63;;;2.40;;
13588;SDS011;6865;52.552;13.434;2023-02-28T09:48:45;4.40;;;1.73;;
13588;SDS011;6865;52.552;13.434;2023-02-28T09:51:28;4.47;;;1.60;;
13588;SDS011;6865;52.552;13.434;2023-02-28T09:54:02;2.73;;;1.30;;
13588;SDS011;6865;52.552;13.434;2023-02-28T09:56:32;2.77;;;1.70;;
13588;SDS011;6865;52.552;13.434;2023-02-28T10:01:58;2.03;;;1.40;;
13588;SDS011;6865;52.552;13.434;2023-02-28T10:04:43;2.50;;;1.67;;
13588;SDS011;6865;52.552;13.434;2023-02-28T10:10:20;3.37;;;1.33;;
13588;SDS011;6865;52.552;13.434;2023-02-28T10:12:57;3.03;;;1.40;;
13588;SDS011;6865;52.552;13.434;2023-02-28T10:15:29;2.37;;;1.43;;
13588;SDS011;6865;52.552;13.434;2023-02-28T10:17:58;4.30;;;1.60;;
13588;SDS011;6865;52.552;13.434;2023-02-28T10:20:35;3.07;;;1.47;;
13588;SDS011;6865;52.552;13.434;2023-02-28T10:23:11;2.20;;;1.47;;
13588;SDS011;6865;52.552;13.434;2023-02-28T10:25:45;2.37;;;1.40;;
13588;SDS011;6865;52.552;13.434;2023-02-28T10:28:21;1.70;;;1.33;;
13588;SDS011;6865;52.552;13.434;2023-02-28T10:30:48;2.30;;;1.67;;
13588;SDS011;6865;52.552;13.434;2023-02-28T10:33:19;3.03;;;1.37;;
13588;SDS011;6865;52.552;13.434;2023-02-28T10:35:48;2.43;;;1.60;;
13588;SDS011;6865;52.552;13.434;2023-02-28T10:38:20;1.83;;;1.30;;
13588;SDS011;6865;52.552;13.434;2023-02-28T10:40:50;2.27;;;1.50;;
13588;SDS011;6865;52.552;13.434;2023-02-28T10:43:21;5.37;;;1.80;;
13588;SDS011;6865;52.552;13.434;2023-02-28T10:45:55;2.20;;;1.43;;
13588;SDS011;6865;52.552;13.434;2023-02-28T10:48:34;2.03;;;1.30;;
13588;SDS011;6865;52.552;13.434;2023-02-28T10:51:15;3.10;;;1.27;;
13588;SDS011;6865;52.552;13.434;2023-02-28T10:53:53;2.23;;;1.50;;
13588;SDS011;6865;52.552;13.434;2023-02-28T10:56:28;2.20;;;1.50;;
13588;SDS011;6865;52.552;13.434;2023-02-28T10:59:19;2.50;;;1.33;;
13588;SDS011;6865;52.552;13.434;2023-02-28T11:01:53;2.60;;;1.60;;
13588;SDS011;6865;52.552;13.434;2023-02-28T11:04:32;4.27;;;1.47;;
13588;SDS011;6865;52.552;13.434;2023-02-28T11:07:14;3.03;;;1.50;;
13588;SDS011;6865;52.552;13.434;2023-02-28T11:09:50;3.73;;;1.30;;
13588;SDS011;6865;52.552;13.434;2023-02-28T11:12:36;2.77;;;1.67;;
13588;SDS011;6865;52.552;13.434;2023-02-28T11:15:21;3.97;;;1.80;;
13588;SDS011;6865;52.552;13.434;2023-02-28T11:17:54;3.87;;;1.77;;
13588;SDS011;6865;52.552;13.434;2023-02-28T11:20:28;5.47;;;1.77;;
13588;SDS011;6865;52.552;13.434;2023-02-28T11:22:57;2.47;;;1.67;;
13588;SDS011;6865;52.552;13.434;2023-02-28T11:25:28;5.03;;;1.90;;
13588;SDS011;6865;52.552;13.434;2023-02-28T11:27:59;3.00;;;1.93;;
13588;SDS011;6865;52.552;13.434;2023-02-28T11:30:29;4.07;;;2.17;;
13588;SDS011;6865;52.552;13.434;2023-02-28T11:32:59;2.90;;;1.87;;
13588;SDS011;6865;52.552;13.434;2023-02-28T11:35:31;4.47;;;1.83;;
13588;SDS011;6865;52.552;13.434;2023-02-28T11:38:02;5.33;;;1.90;;
13588;SDS011;6865;52.552;13.434;2023-02-28T11:40:41;3.33;;;1.90;;
13588;SDS011;6865;52.552;13.434;2023-02-28T11:43:21;3.33;;;1.93;;
13588;SDS011;6865;52.552;13.434;2023-02-28T11:46:15;6.60;;;2.30;;
13588;SDS011;6865;52.552;13.434;2023-02-28T11:51:56;2.93;;;2.30;;
13588;SDS011;6865;52.552;13.434;2023-02-28T11:57:25;2.97;;;2.10;;
13588;SDS011;6865;52.552;13.434;2023-02-28T11:59:58;4.50;;;2.20;;
13588;SDS011;6865;52.552;13.434;2023-02-28T12:02:57;4.50;;;2.43;;
13588;SDS011;6865;52.552;13.434;2023-02-28T12:05:46;3.33;;;2.33;;
13588;SDS011;6865;52.552;13.434;2023-02-28T12:08:28;4.67;;;2.23;;
13588;SDS011;6865;52.552;13.434;2023-02-28T12:11:22;7.57;;;2.03;;
13588;SDS011;6865;52.552;13.434;2023-02-28T12:14:19;2.33;;;1.70;;
13588;SDS011;6865;52.552;13.434;2023-02-28T12:17:23;3.27;;;2.13;;
13588;SDS011;6865;52.552;13.434;2023-02-28T12:19:58;3.60;;;2.20;;
13588;SDS011;6865;52.552;13.434;2023-02-28T12:22:41;3.93;;;2.40;;
13588;SDS011;6865;52.552;13.434;2023-02-28T12:28:08;4.87;;;2.63;;
13588;SDS011;6865;52.552;13.434;2023-02-28T12:30:38;3.47;;;2.37;;
13588;SDS011;6865;52.552;13.434;2023-02-28T12:33:19;3.70;;;2.37;;
13588;SDS011;6865;52.552;13.434;2023-02-28T12:35:54;4.67;;;2.53;;
13588;SDS011;6865;52.552;13.434;2023-02-28T12:38:29;6.40;;;2.63;;
13588;SDS011;6865;52.552;13.434;2023-02-28T12:41:09;5.03;;;2.63;;
13588;SDS011;6865;52.552;13.434;2023-02-28T12:44:08;4.33;;;2.53;;
13588;SDS011;6865;52.552;13.434;2023-02-28T12:46:40;5.17;;;2.27;;
13588;SDS011;6865;52.552;13.434;2023-02-28T12:49:16;3.27;;;2.43;;
13588;SDS011;6865;52.552;13.434;2023-02-28T12:51:47;3.77;;;2.33;;
13588;SDS011;6865;52.552;13.434;2023-02-28T12:54:19;3.60;;;2.30;;
13588;SDS011;6865;52.552;13.434;2023-02-28T12:56:58;3.43;;;2.30;;
13588;SDS011;6865;52.552;13.434;2023-02-28T12:59:48;3.93;;;2.60;;
13588;SDS011;6865;52.552;13.434;2023-02-28T13:02:23;5.37;;;2.70;;
13588;SDS011;6865;52.552;13.434;2023-02-28T13:05:10;4.53;;;2.43;;
13588;SDS011;6865;52.552;13.434;2023-02-28T13:08:11;3.97;;;2.33;;
13588;SDS011;6865;52.552;13.434;2023-02-28T13:10:50;4.60;;;2.17;;
13588;SDS011;6865;52.552;13.434;2023-02-28T13:13:21;4.87;;;2.60;;
13588;SDS011;6865;52.552;13.434;2023-02-28T13:15:59;2.67;;;2.17;;
13588;SDS011;6865;52.552;13.434;2023-02-28T13:18:31;3.93;;;2.23;;
13588;SDS011;6865;52.552;13.434;2023-02-28T13:20:58;3.17;;;2.37;;
13588;SDS011;6865;52.552;13.434;2023-02-28T13:26:18;3.67;;;2.60;;
13588;SDS011;6865;52.552;13.434;2023-02-28T13:31:19;4.50;;;2.30;;
13588;SDS011;6865;52.552;13.434;2023-02-28T13:38:46;3.37;;;2.37;;
13588;SDS011;6865;52.552;13.434;2023-02-28T13:44:15;3.07;;;2.30;;
13588;SDS011;6865;52.552;13.434;2023-02-28T14:03:40;4.07;;;2.50;;
13588;SDS011;6865;52.552;13.434;2023-02-28T14:06:34;5.38;;;2.45;;
13588;SDS011;6865;52.552;13.434;2023-02-28T14:09:05;3.97;;;2.30;;
13588;SDS011;6865;52.552;13.434;2023-02-28T14:11:50;2.70;;;2.20;;
13588;SDS011;6865;52.552;13.434;2023-02-28T14:17:12;5.23;;;2.80;;
13588;SDS011;6865;52.552;13.434;2023-02-28T14:19:43;3.73;;;2.23;;
13588;SDS011;6865;52.552;13.434;2023-02-28T14:22:22;3.43;;;2.30;;
13588;SDS011;6865;52.552;13.434;2023-02-28T14:25:20;3.27;;;2.20;;
13588;SDS011;6865;52.552;13.434;2023-02-28T14:28:27;9.30;;;2.20;;
13588;SDS011;6865;52.552;13.434;2023-02-28T14:31:14;3.97;;;2.23;;
13588;SDS011;6865;52.552;13.434;2023-02-28T14:34:02;3.43;;;2.20;;
13588;SDS011;6865;52.552;13.434;2023-02-28T14:36:53;3.07;;;2.03;;
13588;SDS011;6865;52.552;13.434;2023-02-28T14:39:24;4.13;;;2.20;;
13588;SDS011;6865;52.552;13.434;2023-02-28T14:41:51;3.73;;;2.53;;
13588;SDS011;6865;52.552;13.434;2023-02-28T14:44:20;4.13;;;2.67;;
13588;SDS011;6865;52.552;13.434;2023-02-28T14:46:49;3.50;;;2.37;;
13588;SDS011;6865;52.552;13.434;2023-02-28T14:49:28;2.70;;;2.20;;
13588;SDS011;6865;52.552;13.434;2023-02-28T14:52:06;4.23;;;2.33;;
13588;SDS011;6865;52.552;13.434;2023-02-28T14:54:37;5.50;;;2.40;;
13588;SDS011;6865;52.552;13.434;2023-02-28T14:57:04;4.33;;;2.50;;
13588;SDS011;6865;52.552;13.434;2023-02-28T14:59:33;4.53;;;2.43;;
13588;SDS011;6865;52.552;13.434;2023-02-28T15:02:13;2.70;;;2.20;;
13588;SDS011;6865;52.552;13.434;2023-02-28T15:04:55;5.30;;;2.83;;
13588;SDS011;6865;52.552;13.434;2023-02-28T15:07:23;3.30;;;2.43;;
13588;SDS011;6865;52.552;13.434;2023-02-28T15:12:57;6.03;;;2.70;;
13588;SDS011;6865;52.552;13.434;2023-02-28T15:15:45;3.63;;;2.60;;
13588;SDS011;6865;52.552;13.434;2023-02-28T15:18:33;4.47;;;2.40;;
13588;SDS011;6865;52.552;13.434;2023-02-28T15:21:11;3.43;;;2.47;;
13588;SDS011;6865;52.552;13.434;2023-02-28T15:23:46;3.27;;;2.23;;
13588;SDS011;6865;52.552;13.434;2023-02-28T15:26:22;4.70;;;2.73;;
13588;SDS011;6865;52.552;13.434;2023-02-28T15:28:55;5.67;;;2.50;;
13588;SDS011;6865;52.552;13.434;2023-02-28T15:31:35;2.87;;;2.33;;
13588;SDS011;6865;52.552;13.434;2023-02-28T15:34:26;3.63;;;2.20;;
13588;SDS011;6865;52.552;13.434;2023-02-28T15:37:45;4.20;;;2.60;;
13588;SDS011;6865;52.552;13.434;2023-02-28T15:42:57;4.40;;;2.40;;
13588;SDS011;6865;52.552;13.434;2023-02-28T15:45:40;4.77;;;2.20;;
13588;SDS011;6865;52.552;13.434;2023-02-28T15:48:16;4.30;;;2.70;;
13588;SDS011;6865;52.552;13.434;2023-02-28T15:50:49;4.07;;;2.53;;
13588;SDS011;6865;52.552;13.434;2023-02-28T15:53:23;4.37;;;2.57;;
13588;SDS011;6865;52.552;13.434;2023-02-28T15:55:55;3.80;;;2.47;;
13588;SDS011;6865;52.552;13.434;2023-02-28T15:58:24;3.93;;;2.60;;
13588;SDS011;6865;52.552;13.434;2023-02-28T16:01:04;4.83;;;2.87;;
13588;SDS011;6865;52.552;13.434;2023-02-28T16:03:38;5.13;;;2.77;;
13588;SDS011;6865;52.552;13.434;2023-02-28T16:09:01;5.67;;;3.30;;
13588;SDS011;6865;52.552;13.434;2023-02-28T16:11:28;6.73;;;4.00;;
13588;SDS011;6865;52.552;13.434;2023-02-28T16:13:56;4.00;;;3.10;;
13588;SDS011;6865;52.552;13.434;2023-02-28T16:16:24;5.37;;;4.00;;
13588;SDS011;6865;52.552;13.434;2023-02-28T16:18:52;4.90;;;3.50;;
13588;SDS011;6865;52.552;13.434;2023-02-28T16:21:20;5.90;;;3.10;;
13588;SDS011;6865;52.552;13.434;2023-02-28T16:23:47;5.50;;;3.00;;
13588;SDS011;6865;52.552;13.434;2023-02-28T16:26:16;5.10;;;3.23;;
13588;SDS011;6865;52.552;13.434;2023-02-28T16:28:47;5.87;;;2.87;;